Česky Dansk Deutsch English Español Suomi Français Magyar Italiano Nederlands norsk Polski Português svenska Türkçe

 

Het Weer

Vamdrup (Denemarken)

01:20, 23 augustus 2016 (GMT)

NWNNE
WE
SWSSE
Home            
Vamdrup Skrydstrup Vandel Billund Lufthavn Esbjerg Soenderborg Lufthavn Odense / Beldringe Gluecksburg / Meierwik Westerland / Sylt Stauning Lufthavn Eggebek Sydfyns Flyveplads Karup Schleswig-Jagel Lindtorp Airport Skive Lufthavn Hohn Tirstrup Kiel-Holtenau Kiel / Holtenau Civilian Hadsund Maribo Lufthavn Avno Danish Air Force Base

Om een weerknop op uw website of weblog te plaatsen, copieer onderstaande code en plak die in uw pagina. In het eerste vakje staat HTML-code, in het tweede vakje UBB-code.


Add to Google

Details

Wind speed:3 bf, 8 kn, 4.1 m/s, 9.2 miles/h, 14.8 km/h
Wind direction:W, 260°
Het Weer:moderate
moderate
Temperature:17°C, 63°F
Dew-point:17°C, 63°F
Atmospheric pressure:1021 hPa, 765.8 mmHg, 30.15 inHg, 1.008 atm
Relative humidity:100.0 %
METAR:EKVD 230120Z AUTO 26008KT 17/17 Q1021

Snelkoppelingen

Actuele weersinformatie van de hele wereld. Voeg locaties toe met het plus (+) symbool. Deze snelkoppelingen kunnen worden toegevoegd aan Google.

Lid van de Technetium groep

website free tracking
StatCounter NetStat W3C Validator

05-10-2022 05:56:48
astro.technetium.be money.technetium.be phote.technetium.be tafeltennistafel.technetium.be www.ligfiets.net